sensor_id;sensor_type;location;lat;lon;timestamp;P1;durP1;ratioP1;P2;durP2;ratioP2
57047;SDS011;42934;54.294;18.598;2022-08-21T00:03:11;15.05;;;13.38;;
57047;SDS011;42934;54.294;18.598;2022-08-21T00:05:41;16.30;;;14.60;;
57047;SDS011;42934;54.294;18.598;2022-08-21T00:08:12;14.73;;;13.18;;
57047;SDS011;42934;54.294;18.598;2022-08-21T00:10:42;13.55;;;12.15;;
57047;SDS011;42934;54.294;18.598;2022-08-21T00:13:13;12.90;;;11.38;;
57047;SDS011;42934;54.294;18.598;2022-08-21T00:15:46;12.43;;;11.23;;
57047;SDS011;42934;54.294;18.598;2022-08-21T00:18:17;13.38;;;11.80;;
57047;SDS011;42934;54.294;18.598;2022-08-21T00:20:47;13.73;;;11.63;;
57047;SDS011;42934;54.294;18.598;2022-08-21T00:23:16;13.80;;;12.40;;
57047;SDS011;42934;54.294;18.598;2022-08-21T00:25:46;12.43;;;11.23;;
57047;SDS011;42934;54.294;18.598;2022-08-21T00:28:16;11.77;;;10.57;;
57047;SDS011;42934;54.294;18.598;2022-08-21T00:30:47;11.07;;;9.32;;
57047;SDS011;42934;54.294;18.598;2022-08-21T00:33:17;14.60;;;11.05;;
57047;SDS011;42934;54.294;18.598;2022-08-21T00:35:46;10.45;;;9.55;;
57047;SDS011;42934;54.294;18.598;2022-08-21T00:38:15;11.13;;;9.07;;
57047;SDS011;42934;54.294;18.598;2022-08-21T00:40:46;11.02;;;9.93;;
57047;SDS011;42934;54.294;18.598;2022-08-21T00:43:18;10.20;;;9.20;;
57047;SDS011;42934;54.294;18.598;2022-08-21T00:45:51;10.48;;;9.50;;
57047;SDS011;42934;54.294;18.598;2022-08-21T00:48:22;10.02;;;8.50;;
57047;SDS011;42934;54.294;18.598;2022-08-21T00:50:52;10.30;;;9.30;;
57047;SDS011;42934;54.294;18.598;2022-08-21T00:53:25;9.73;;;8.82;;
57047;SDS011;42934;54.294;18.598;2022-08-21T00:55:57;10.10;;;9.00;;
57047;SDS011;42934;54.294;18.598;2022-08-21T00:58:29;9.10;;;8.30;;
57047;SDS011;42934;54.294;18.598;2022-08-21T01:01:06;11.85;;;9.18;;
57047;SDS011;42934;54.294;18.598;2022-08-21T01:03:36;9.30;;;8.40;;
57047;SDS011;42934;54.294;18.598;2022-08-21T01:06:11;8.95;;;8.15;;
57047;SDS011;42934;54.294;18.598;2022-08-21T01:08:40;9.63;;;8.63;;
57047;SDS011;42934;54.294;18.598;2022-08-21T01:11:13;9.45;;;8.45;;
57047;SDS011;42934;54.294;18.598;2022-08-21T01:13:42;7.88;;;7.10;;
57047;SDS011;42934;54.294;18.598;2022-08-21T01:16:15;9.30;;;8.40;;
57047;SDS011;42934;54.294;18.598;2022-08-21T01:18:48;9.63;;;8.63;;
57047;SDS011;42934;54.294;18.598;2022-08-21T01:21:20;9.18;;;8.25;;
57047;SDS011;42934;54.294;18.598;2022-08-21T01:23:54;9.95;;;8.95;;
57047;SDS011;42934;54.294;18.598;2022-08-21T01:26:25;9.07;;;8.20;;
57047;SDS011;42934;54.294;18.598;2022-08-21T01:29:02;8.98;;;8.18;;
57047;SDS011;42934;54.294;18.598;2022-08-21T01:31:34;10.52;;;9.00;;
57047;SDS011;42934;54.294;18.598;2022-08-21T01:34:04;9.88;;;8.82;;
57047;SDS011;42934;54.294;18.598;2022-08-21T01:36:35;8.90;;;7.95;;
57047;SDS011;42934;54.294;18.598;2022-08-21T01:39:05;9.43;;;8.57;;
57047;SDS011;42934;54.294;18.598;2022-08-21T01:44:04;9.10;;;8.20;;
57047;SDS011;42934;54.294;18.598;2022-08-21T01:46:33;9.75;;;8.32;;
57047;SDS011;42934;54.294;18.598;2022-08-21T01:49:03;9.65;;;8.75;;
57047;SDS011;42934;54.294;18.598;2022-08-21T01:51:33;9.18;;;8.35;;
57047;SDS011;42934;54.294;18.598;2022-08-21T01:54:04;9.25;;;8.27;;
57047;SDS011;42934;54.294;18.598;2022-08-21T01:56:35;10.20;;;8.77;;
57047;SDS011;42934;54.294;18.598;2022-08-21T01:59:06;9.45;;;8.32;;
57047;SDS011;42934;54.294;18.598;2022-08-21T02:04:06;7.75;;;6.97;;
57047;SDS011;42934;54.294;18.598;2022-08-21T02:06:38;7.88;;;7.18;;
57047;SDS011;42934;54.294;18.598;2022-08-21T02:09:09;7.97;;;6.97;;
57047;SDS011;42934;54.294;18.598;2022-08-21T02:11:40;7.65;;;6.90;;
57047;SDS011;42934;54.294;18.598;2022-08-21T02:14:10;6.82;;;6.03;;
57047;SDS011;42934;54.294;18.598;2022-08-21T02:16:58;6.47;;;5.93;;
57047;SDS011;42934;54.294;18.598;2022-08-21T02:19:35;6.50;;;5.90;;
57047;SDS011;42934;54.294;18.598;2022-08-21T02:22:08;6.40;;;5.80;;
57047;SDS011;42934;54.294;18.598;2022-08-21T02:24:38;7.07;;;6.47;;
57047;SDS011;42934;54.294;18.598;2022-08-21T02:27:20;6.80;;;6.18;;
57047;SDS011;42934;54.294;18.598;2022-08-21T02:29:52;7.07;;;6.47;;
57047;SDS011;42934;54.294;18.598;2022-08-21T02:32:24;7.85;;;7.05;;
57047;SDS011;42934;54.294;18.598;2022-08-21T02:37:24;7.57;;;6.88;;
57047;SDS011;42934;54.294;18.598;2022-08-21T02:39:53;7.82;;;7.03;;
57047;SDS011;42934;54.294;18.598;2022-08-21T02:42:23;7.85;;;7.13;;
57047;SDS011;42934;54.294;18.598;2022-08-21T02:44:52;8.00;;;7.20;;
57047;SDS011;42934;54.294;18.598;2022-08-21T02:47:21;7.97;;;7.05;;
57047;SDS011;42934;54.294;18.598;2022-08-21T02:49:51;8.60;;;7.80;;
57047;SDS011;42934;54.294;18.598;2022-08-21T02:52:21;7.78;;;7.07;;
57047;SDS011;42934;54.294;18.598;2022-08-21T02:54:52;8.00;;;7.28;;
57047;SDS011;42934;54.294;18.598;2022-08-21T02:57:21;7.82;;;7.03;;
57047;SDS011;42934;54.294;18.598;2022-08-21T02:59:51;8.82;;;7.93;;
57047;SDS011;42934;54.294;18.598;2022-08-21T03:02:20;8.50;;;7.70;;
57047;SDS011;42934;54.294;18.598;2022-08-21T03:04:52;8.75;;;7.68;;
57047;SDS011;42934;54.294;18.598;2022-08-21T03:07:21;8.88;;;8.00;;
57047;SDS011;42934;54.294;18.598;2022-08-21T03:09:53;9.02;;;7.82;;
57047;SDS011;42934;54.294;18.598;2022-08-21T03:12:22;8.50;;;7.70;;
57047;SDS011;42934;54.294;18.598;2022-08-21T03:14:55;9.48;;;7.93;;
57047;SDS011;42934;54.294;18.598;2022-08-21T03:17:25;8.60;;;7.68;;
57047;SDS011;42934;54.294;18.598;2022-08-21T03:19:56;8.43;;;7.72;;
57047;SDS011;42934;54.294;18.598;2022-08-21T03:22:27;9.52;;;7.95;;
57047;SDS011;42934;54.294;18.598;2022-08-21T03:24:57;8.70;;;7.88;;
57047;SDS011;42934;54.294;18.598;2022-08-21T03:27:26;8.90;;;7.97;;
57047;SDS011;42934;54.294;18.598;2022-08-21T03:29:58;8.95;;;8.05;;
57047;SDS011;42934;54.294;18.598;2022-08-21T03:32:27;8.95;;;8.02;;
57047;SDS011;42934;54.294;18.598;2022-08-21T03:34:58;9.63;;;8.02;;
57047;SDS011;42934;54.294;18.598;2022-08-21T03:37:29;10.02;;;8.07;;
57047;SDS011;42934;54.294;18.598;2022-08-21T03:39:59;9.32;;;8.13;;
57047;SDS011;42934;54.294;18.598;2022-08-21T03:42:29;8.77;;;7.88;;
57047;SDS011;42934;54.294;18.598;2022-08-21T03:44:58;8.90;;;8.10;;
57047;SDS011;42934;54.294;18.598;2022-08-21T03:47:28;9.25;;;8.35;;
57047;SDS011;42934;54.294;18.598;2022-08-21T03:52:27;8.60;;;7.80;;
57047;SDS011;42934;54.294;18.598;2022-08-21T03:54:58;8.55;;;7.65;;
57047;SDS011;42934;54.294;18.598;2022-08-21T03:57:27;9.32;;;8.43;;
57047;SDS011;42934;54.294;18.598;2022-08-21T03:59:57;9.70;;;8.70;;
57047;SDS011;42934;54.294;18.598;2022-08-21T04:02:26;9.60;;;8.18;;
57047;SDS011;42934;54.294;18.598;2022-08-21T04:04:56;8.65;;;7.80;;
57047;SDS011;42934;54.294;18.598;2022-08-21T04:07:25;12.15;;;9.05;;
57047;SDS011;42934;54.294;18.598;2022-08-21T04:09:55;9.73;;;8.50;;
57047;SDS011;42934;54.294;18.598;2022-08-21T04:12:25;10.85;;;8.52;;
57047;SDS011;42934;54.294;18.598;2022-08-21T04:14:54;9.05;;;8.15;;
57047;SDS011;42934;54.294;18.598;2022-08-21T04:17:24;9.68;;;8.52;;
57047;SDS011;42934;54.294;18.598;2022-08-21T04:19:53;11.32;;;8.13;;
57047;SDS011;42934;54.294;18.598;2022-08-21T04:22:23;10.02;;;8.15;;
57047;SDS011;42934;54.294;18.598;2022-08-21T04:24:52;11.98;;;8.50;;
57047;SDS011;42934;54.294;18.598;2022-08-21T04:27:23;9.02;;;8.02;;
57047;SDS011;42934;54.294;18.598;2022-08-21T04:29:52;9.80;;;8.23;;
57047;SDS011;42934;54.294;18.598;2022-08-21T04:32:22;9.45;;;8.45;;
57047;SDS011;42934;54.294;18.598;2022-08-21T04:34:57;9.45;;;8.45;;
57047;SDS011;42934;54.294;18.598;2022-08-21T04:37:27;10.85;;;8.70;;
57047;SDS011;42934;54.294;18.598;2022-08-21T04:39:57;11.20;;;8.70;;
57047;SDS011;42934;54.294;18.598;2022-08-21T04:42:28;13.82;;;9.60;;
57047;SDS011;42934;54.294;18.598;2022-08-21T04:44:58;12.07;;;9.18;;
57047;SDS011;42934;54.294;18.598;2022-08-21T04:50:17;10.82;;;9.02;;
57047;SDS011;42934;54.294;18.598;2022-08-21T04:53:02;13.05;;;9.30;;
57047;SDS011;42934;54.294;18.598;2022-08-21T04:55:33;12.77;;;9.48;;
57047;SDS011;42934;54.294;18.598;2022-08-21T04:58:06;11.25;;;9.27;;
57047;SDS011;42934;54.294;18.598;2022-08-21T05:00:37;12.30;;;8.98;;
57047;SDS011;42934;54.294;18.598;2022-08-21T05:03:07;12.55;;;9.32;;
57047;SDS011;42934;54.294;18.598;2022-08-21T05:05:39;10.68;;;9.00;;
57047;SDS011;42934;54.294;18.598;2022-08-21T05:08:11;10.02;;;8.73;;
57047;SDS011;42934;54.294;18.598;2022-08-21T05:10:44;10.60;;;9.27;;
57047;SDS011;42934;54.294;18.598;2022-08-21T05:13:15;12.52;;;9.95;;
57047;SDS011;42934;54.294;18.598;2022-08-21T05:15:45;10.23;;;9.18;;
57047;SDS011;42934;54.294;18.598;2022-08-21T05:18:14;10.75;;;9.32;;
57047;SDS011;42934;54.294;18.598;2022-08-21T05:20:44;10.57;;;9.18;;
57047;SDS011;42934;54.294;18.598;2022-08-21T05:23:13;11.43;;;9.00;;
57047;SDS011;42934;54.294;18.598;2022-08-21T05:25:43;10.30;;;8.95;;
57047;SDS011;42934;54.294;18.598;2022-08-21T05:28:16;10.27;;;9.18;;
57047;SDS011;42934;54.294;18.598;2022-08-21T05:30:45;11.20;;;9.18;;
57047;SDS011;42934;54.294;18.598;2022-08-21T05:33:15;10.10;;;9.00;;
57047;SDS011;42934;54.294;18.598;2022-08-21T05:35:44;10.63;;;9.50;;
57047;SDS011;42934;54.294;18.598;2022-08-21T05:38:17;9.95;;;8.98;;
57047;SDS011;42934;54.294;18.598;2022-08-21T05:40:46;11.23;;;8.88;;
57047;SDS011;42934;54.294;18.598;2022-08-21T05:43:17;11.27;;;9.00;;
57047;SDS011;42934;54.294;18.598;2022-08-21T05:45:47;9.65;;;8.65;;
57047;SDS011;42934;54.294;18.598;2022-08-21T05:48:18;11.55;;;8.60;;
57047;SDS011;42934;54.294;18.598;2022-08-21T05:50:49;9.98;;;8.88;;
57047;SDS011;42934;54.294;18.598;2022-08-21T05:53:20;9.77;;;8.10;;
57047;SDS011;42934;54.294;18.598;2022-08-21T05:55:51;7.82;;;7.05;;
57047;SDS011;42934;54.294;18.598;2022-08-21T05:58:22;7.57;;;6.78;;
57047;SDS011;42934;54.294;18.598;2022-08-21T06:00:52;8.32;;;6.10;;
57047;SDS011;42934;54.294;18.598;2022-08-21T06:03:22;6.40;;;5.80;;
57047;SDS011;42934;54.294;18.598;2022-08-21T06:05:53;6.07;;;5.55;;
57047;SDS011;42934;54.294;18.598;2022-08-21T06:10:53;7.25;;;5.45;;
57047;SDS011;42934;54.294;18.598;2022-08-21T06:13:25;6.90;;;5.60;;
57047;SDS011;42934;54.294;18.598;2022-08-21T06:16:03;6.38;;;5.78;;
57047;SDS011;42934;54.294;18.598;2022-08-21T06:18:35;5.85;;;5.00;;
57047;SDS011;42934;54.294;18.598;2022-08-21T06:21:05;6.53;;;5.80;;
57047;SDS011;42934;54.294;18.598;2022-08-21T06:23:36;6.50;;;5.90;;
57047;SDS011;42934;54.294;18.598;2022-08-21T06:26:06;6.05;;;5.43;;
57047;SDS011;42934;54.294;18.598;2022-08-21T06:28:37;6.43;;;5.75;;
57047;SDS011;42934;54.294;18.598;2022-08-21T06:31:12;7.32;;;6.07;;
57047;SDS011;42934;54.294;18.598;2022-08-21T06:33:43;6.43;;;5.85;;
57047;SDS011;42934;54.294;18.598;2022-08-21T06:36:13;7.07;;;6.32;;
57047;SDS011;42934;54.294;18.598;2022-08-21T06:38:43;6.53;;;5.90;;
57047;SDS011;42934;54.294;18.598;2022-08-21T06:41:18;6.35;;;5.78;;
57047;SDS011;42934;54.294;18.598;2022-08-21T06:43:54;7.25;;;6.55;;
57047;SDS011;42934;54.294;18.598;2022-08-21T06:46:25;6.90;;;6.25;;
57047;SDS011;42934;54.294;18.598;2022-08-21T06:48:56;6.95;;;6.32;;
57047;SDS011;42934;54.294;18.598;2022-08-21T06:51:27;6.45;;;5.95;;
57047;SDS011;42934;54.294;18.598;2022-08-21T06:53:56;6.95;;;6.25;;
57047;SDS011;42934;54.294;18.598;2022-08-21T06:56:26;6.20;;;5.60;;
57047;SDS011;42934;54.294;18.598;2022-08-21T06:58:58;6.32;;;5.72;;
57047;SDS011;42934;54.294;18.598;2022-08-21T07:01:28;6.00;;;5.50;;
57047;SDS011;42934;54.294;18.598;2022-08-21T07:03:57;6.05;;;5.47;;
57047;SDS011;42934;54.294;18.598;2022-08-21T07:08:52;5.05;;;4.55;;
57047;SDS011;42934;54.294;18.598;2022-08-21T07:11:25;5.90;;;5.15;;
57047;SDS011;42934;54.294;18.598;2022-08-21T07:13:54;5.15;;;4.65;;
57047;SDS011;42934;54.294;18.598;2022-08-21T07:16:23;6.05;;;4.60;;
57047;SDS011;42934;54.294;18.598;2022-08-21T07:21:23;4.82;;;4.40;;
57047;SDS011;42934;54.294;18.598;2022-08-21T07:23:53;6.95;;;5.38;;
57047;SDS011;42934;54.294;18.598;2022-08-21T07:26:23;6.95;;;4.65;;
57047;SDS011;42934;54.294;18.598;2022-08-21T07:28:53;5.93;;;4.45;;
57047;SDS011;42934;54.294;18.598;2022-08-21T07:31:23;4.97;;;4.50;;
57047;SDS011;42934;54.294;18.598;2022-08-21T07:33:54;6.95;;;5.28;;
57047;SDS011;42934;54.294;18.598;2022-08-21T07:36:23;7.80;;;4.95;;
57047;SDS011;42934;54.294;18.598;2022-08-21T07:38:54;6.00;;;4.70;;
57047;SDS011;42934;54.294;18.598;2022-08-21T07:41:25;5.35;;;4.82;;
57047;SDS011;42934;54.294;18.598;2022-08-21T07:43:58;5.55;;;4.53;;
57047;SDS011;42934;54.294;18.598;2022-08-21T07:46:29;5.20;;;4.60;;
57047;SDS011;42934;54.294;18.598;2022-08-21T07:48:59;5.05;;;4.55;;
57047;SDS011;42934;54.294;18.598;2022-08-21T07:51:30;4.65;;;4.25;;
57047;SDS011;42934;54.294;18.598;2022-08-21T07:54:02;6.65;;;5.05;;
57047;SDS011;42934;54.294;18.598;2022-08-21T07:56:33;5.32;;;4.82;;
57047;SDS011;42934;54.294;18.598;2022-08-21T07:59:03;7.75;;;5.30;;
57047;SDS011;42934;54.294;18.598;2022-08-21T08:01:34;6.30;;;4.85;;
57047;SDS011;42934;54.294;18.598;2022-08-21T08:04:03;5.75;;;5.13;;
57047;SDS011;42934;54.294;18.598;2022-08-21T08:06:32;6.65;;;4.63;;
57047;SDS011;42934;54.294;18.598;2022-08-21T08:09:04;5.07;;;4.65;;
57047;SDS011;42934;54.294;18.598;2022-08-21T08:11:35;6.45;;;4.70;;
57047;SDS011;42934;54.294;18.598;2022-08-21T08:14:08;6.10;;;4.97;;
57047;SDS011;42934;54.294;18.598;2022-08-21T08:16:38;4.93;;;4.53;;
57047;SDS011;42934;54.294;18.598;2022-08-21T08:19:08;5.68;;;4.50;;
57047;SDS011;42934;54.294;18.598;2022-08-21T08:21:39;5.32;;;4.65;;
57047;SDS011;42934;54.294;18.598;2022-08-21T08:24:10;5.35;;;4.85;;
57047;SDS011;42934;54.294;18.598;2022-08-21T08:26:46;6.32;;;4.72;;
57047;SDS011;42934;54.294;18.598;2022-08-21T08:29:20;5.53;;;4.80;;
57047;SDS011;42934;54.294;18.598;2022-08-21T08:31:50;5.75;;;4.70;;
57047;SDS011;42934;54.294;18.598;2022-08-21T08:34:19;5.50;;;4.95;;
57047;SDS011;42934;54.294;18.598;2022-08-21T08:36:51;6.80;;;4.70;;
57047;SDS011;42934;54.294;18.598;2022-08-21T08:39:23;4.95;;;4.30;;
57047;SDS011;42934;54.294;18.598;2022-08-21T08:41:57;4.95;;;4.45;;
57047;SDS011;42934;54.294;18.598;2022-08-21T08:44:55;5.32;;;4.53;;
57047;SDS011;42934;54.294;18.598;2022-08-21T08:47:28;5.32;;;4.50;;
57047;SDS011;42934;54.294;18.598;2022-08-21T08:50:03;5.53;;;4.70;;
57047;SDS011;42934;54.294;18.598;2022-08-21T08:52:36;4.60;;;4.00;;
57047;SDS011;42934;54.294;18.598;2022-08-21T08:55:14;5.65;;;4.65;;
57047;SDS011;42934;54.294;18.598;2022-08-21T08:57:53;4.72;;;4.25;;
57047;SDS011;42934;54.294;18.598;2022-08-21T09:00:23;4.70;;;4.30;;
57047;SDS011;42934;54.294;18.598;2022-08-21T09:02:55;4.95;;;4.35;;
57047;SDS011;42934;54.294;18.598;2022-08-21T09:05:28;4.47;;;4.00;;
57047;SDS011;42934;54.294;18.598;2022-08-21T09:08:10;6.68;;;4.43;;
57047;SDS011;42934;54.294;18.598;2022-08-21T09:10:54;5.82;;;3.90;;
57047;SDS011;42934;54.294;18.598;2022-08-21T09:13:33;4.30;;;3.90;;
57047;SDS011;42934;54.294;18.598;2022-08-21T09:16:13;5.10;;;4.20;;
57047;SDS011;42934;54.294;18.598;2022-08-21T09:18:52;6.25;;;4.32;;
57047;SDS011;42934;54.294;18.598;2022-08-21T09:21:32;4.90;;;4.10;;
57047;SDS011;42934;54.294;18.598;2022-08-21T09:24:22;5.38;;;4.40;;
57047;SDS011;42934;54.294;18.598;2022-08-21T09:27:02;4.85;;;4.10;;
57047;SDS011;42934;54.294;18.598;2022-08-21T09:29:41;5.80;;;3.97;;
57047;SDS011;42934;54.294;18.598;2022-08-21T09:32:15;5.57;;;4.18;;
57047;SDS011;42934;54.294;18.598;2022-08-21T09:34:57;5.13;;;3.75;;
57047;SDS011;42934;54.294;18.598;2022-08-21T09:37:28;4.85;;;4.28;;
57047;SDS011;42934;54.294;18.598;2022-08-21T09:40:02;4.65;;;4.07;;
57047;SDS011;42934;54.294;18.598;2022-08-21T09:42:52;6.00;;;4.10;;
57047;SDS011;42934;54.294;18.598;2022-08-21T09:45:24;5.03;;;3.90;;
57047;SDS011;42934;54.294;18.598;2022-08-21T09:48:09;4.93;;;4.15;;
57047;SDS011;42934;54.294;18.598;2022-08-21T09:50:41;5.20;;;4.20;;
57047;SDS011;42934;54.294;18.598;2022-08-21T09:53:16;6.22;;;4.20;;
57047;SDS011;42934;54.294;18.598;2022-08-21T09:55:48;5.55;;;4.40;;
57047;SDS011;42934;54.294;18.598;2022-08-21T09:58:40;7.43;;;4.57;;
57047;SDS011;42934;54.294;18.598;2022-08-21T10:01:13;4.75;;;4.20;;
57047;SDS011;42934;54.294;18.598;2022-08-21T10:03:44;6.32;;;4.22;;
57047;SDS011;42934;54.294;18.598;2022-08-21T10:06:21;5.47;;;4.22;;
57047;SDS011;42934;54.294;18.598;2022-08-21T10:09:02;5.43;;;4.10;;
57047;SDS011;42934;54.294;18.598;2022-08-21T10:11:33;5.88;;;4.00;;
57047;SDS011;42934;54.294;18.598;2022-08-21T10:14:08;5.25;;;3.78;;
57047;SDS011;42934;54.294;18.598;2022-08-21T10:16:47;5.18;;;3.67;;
57047;SDS011;42934;54.294;18.598;2022-08-21T10:19:30;4.40;;;3.80;;
57047;SDS011;42934;54.294;18.598;2022-08-21T10:22:08;4.55;;;3.63;;
57047;SDS011;42934;54.294;18.598;2022-08-21T10:24:46;4.80;;;3.80;;
57047;SDS011;42934;54.294;18.598;2022-08-21T10:27:29;3.50;;;3.20;;
57047;SDS011;42934;54.294;18.598;2022-08-21T10:30:08;5.03;;;3.42;;
57047;SDS011;42934;54.294;18.598;2022-08-21T10:32:47;4.70;;;2.72;;
57047;SDS011;42934;54.294;18.598;2022-08-21T10:35:36;3.70;;;3.35;;
57047;SDS011;42934;54.294;18.598;2022-08-21T10:38:22;3.28;;;2.97;;
57047;SDS011;42934;54.294;18.598;2022-08-21T10:41:37;5.20;;;3.10;;
57047;SDS011;42934;54.294;18.598;2022-08-21T10:44:18;3.92;;;3.20;;
57047;SDS011;42934;54.294;18.598;2022-08-21T10:46:57;5.88;;;3.50;;
57047;SDS011;42934;54.294;18.598;2022-08-21T10:49:35;3.50;;;3.20;;
57047;SDS011;42934;54.294;18.598;2022-08-21T10:52:22;8.00;;;3.33;;
57047;SDS011;42934;54.294;18.598;2022-08-21T10:55:11;4.45;;;3.08;;
57047;SDS011;42934;54.294;18.598;2022-08-21T10:57:46;4.00;;;2.97;;
57047;SDS011;42934;54.294;18.598;2022-08-21T11:00:20;4.28;;;3.47;;
57047;SDS011;42934;54.294;18.598;2022-08-21T11:02:55;4.38;;;3.03;;
57047;SDS011;42934;54.294;18.598;2022-08-21T11:05:31;4.72;;;3.20;;
57047;SDS011;42934;54.294;18.598;2022-08-21T11:08:08;4.85;;;3.40;;
57047;SDS011;42934;54.294;18.598;2022-08-21T11:10:43;4.18;;;2.92;;
57047;SDS011;42934;54.294;18.598;2022-08-21T11:13:27;3.38;;;2.65;;
57047;SDS011;42934;54.294;18.598;2022-08-21T11:16:05;4.18;;;2.50;;
57047;SDS011;42934;54.294;18.598;2022-08-21T11:18:45;3.05;;;2.60;;
57047;SDS011;42934;54.294;18.598;2022-08-21T11:21:24;3.17;;;2.85;;
57047;SDS011;42934;54.294;18.598;2022-08-21T11:24:08;3.20;;;2.90;;
57047;SDS011;42934;54.294;18.598;2022-08-21T11:26:54;3.30;;;2.95;;
57047;SDS011;42934;54.294;18.598;2022-08-21T11:29:33;4.57;;;3.03;;
57047;SDS011;42934;54.294;18.598;2022-08-21T11:32:09;3.33;;;2.72;;
57047;SDS011;42934;54.294;18.598;2022-08-21T11:34:57;4.43;;;2.88;;
57047;SDS011;42934;54.294;18.598;2022-08-21T11:37:38;2.60;;;2.40;;
57047;SDS011;42934;54.294;18.598;2022-08-21T11:40:21;3.17;;;2.60;;
57047;SDS011;42934;54.294;18.598;2022-08-21T11:43:02;3.17;;;2.78;;
57047;SDS011;42934;54.294;18.598;2022-08-21T11:45:42;5.07;;;2.78;;
57047;SDS011;42934;54.294;18.598;2022-08-21T11:48:21;6.35;;;3.00;;
57047;SDS011;42934;54.294;18.598;2022-08-21T11:51:05;5.22;;;2.90;;
57047;SDS011;42934;54.294;18.598;2022-08-21T11:53:42;2.85;;;2.63;;
57047;SDS011;42934;54.294;18.598;2022-08-21T11:56:21;3.63;;;2.50;;
57047;SDS011;42934;54.294;18.598;2022-08-21T11:58:55;3.08;;;2.58;;
57047;SDS011;42934;54.294;18.598;2022-08-21T12:01:27;4.50;;;2.85;;
57047;SDS011;42934;54.294;18.598;2022-08-21T12:04:03;3.67;;;2.70;;
57047;SDS011;42934;54.294;18.598;2022-08-21T12:06:38;3.50;;;2.65;;
57047;SDS011;42934;54.294;18.598;2022-08-21T12:09:10;3.00;;;2.53;;
57047;SDS011;42934;54.294;18.598;2022-08-21T12:12:03;5.50;;;2.53;;
57047;SDS011;42934;54.294;18.598;2022-08-21T12:14:41;2.58;;;2.35;;
57047;SDS011;42934;54.294;18.598;2022-08-21T12:17:16;3.95;;;2.58;;
57047;SDS011;42934;54.294;18.598;2022-08-21T12:19:56;5.07;;;2.47;;
57047;SDS011;42934;54.294;18.598;2022-08-21T12:22:37;5.50;;;2.55;;
57047;SDS011;42934;54.294;18.598;2022-08-21T12:25:09;5.57;;;2.47;;
57047;SDS011;42934;54.294;18.598;2022-08-21T12:27:49;3.35;;;2.20;;
57047;SDS011;42934;54.294;18.598;2022-08-21T12:30:23;7.25;;;2.35;;
57047;SDS011;42934;54.294;18.598;2022-08-21T12:33:03;3.83;;;2.00;;
57047;SDS011;42934;54.294;18.598;2022-08-21T12:35:46;3.38;;;1.77;;
57047;SDS011;42934;54.294;18.598;2022-08-21T12:38:20;2.50;;;1.73;;
57047;SDS011;42934;54.294;18.598;2022-08-21T12:40:52;2.97;;;1.90;;
57047;SDS011;42934;54.294;18.598;2022-08-21T12:43:25;3.72;;;1.90;;
57047;SDS011;42934;54.294;18.598;2022-08-21T12:45:58;3.05;;;1.90;;
57047;SDS011;42934;54.294;18.598;2022-08-21T12:48:31;3.92;;;2.00;;
57047;SDS011;42934;54.294;18.598;2022-08-21T12:51:08;5.78;;;2.10;;
57047;SDS011;42934;54.294;18.598;2022-08-21T12:53:42;5.63;;;2.17;;
57047;SDS011;42934;54.294;18.598;2022-08-21T12:56:16;4.22;;;2.10;;
57047;SDS011;42934;54.294;18.598;2022-08-21T12:58:48;3.85;;;2.35;;
57047;SDS011;42934;54.294;18.598;2022-08-21T13:01:20;2.00;;;1.67;;
57047;SDS011;42934;54.294;18.598;2022-08-21T13:03:54;6.82;;;1.95;;
57047;SDS011;42934;54.294;18.598;2022-08-21T13:06:36;3.92;;;2.00;;
57047;SDS011;42934;54.294;18.598;2022-08-21T13:09:10;7.18;;;1.95;;
57047;SDS011;42934;54.294;18.598;2022-08-21T13:11:47;4.88;;;2.47;;
57047;SDS011;42934;54.294;18.598;2022-08-21T13:14:21;6.70;;;2.45;;
57047;SDS011;42934;54.294;18.598;2022-08-21T13:16:58;3.78;;;2.10;;
57047;SDS011;42934;54.294;18.598;2022-08-21T13:19:28;6.10;;;2.40;;
57047;SDS011;42934;54.294;18.598;2022-08-21T13:21:59;5.35;;;2.20;;
57047;SDS011;42934;54.294;18.598;2022-08-21T13:24:51;3.03;;;1.90;;
57047;SDS011;42934;54.294;18.598;2022-08-21T13:27:24;3.13;;;1.90;;
57047;SDS011;42934;54.294;18.598;2022-08-21T13:30:02;4.75;;;1.42;;
57047;SDS011;42934;54.294;18.598;2022-08-21T13:32:34;3.42;;;1.50;;
57047;SDS011;42934;54.294;18.598;2022-08-21T13:35:21;4.68;;;1.58;;
57047;SDS011;42934;54.294;18.598;2022-08-21T13:37:53;4.05;;;1.60;;
57047;SDS011;42934;54.294;18.598;2022-08-21T13:40:26;3.38;;;1.70;;
57047;SDS011;42934;54.294;18.598;2022-08-21T13:42:58;2.70;;;1.77;;
57047;SDS011;42934;54.294;18.598;2022-08-21T13:45:31;4.15;;;1.70;;
57047;SDS011;42934;54.294;18.598;2022-08-21T13:48:01;2.40;;;1.52;;
57047;SDS011;42934;54.294;18.598;2022-08-21T13:50:33;4.10;;;1.77;;
57047;SDS011;42934;54.294;18.598;2022-08-21T13:53:07;3.45;;;1.67;;
57047;SDS011;42934;54.294;18.598;2022-08-21T13:55:56;3.42;;;1.50;;
57047;SDS011;42934;54.294;18.598;2022-08-21T13:58:28;5.75;;;1.80;;
57047;SDS011;42934;54.294;18.598;2022-08-21T14:01:04;4.13;;;1.60;;
57047;SDS011;42934;54.294;18.598;2022-08-21T14:03:34;4.63;;;1.80;;
57047;SDS011;42934;54.294;18.598;2022-08-21T14:06:13;4.88;;;1.63;;
57047;SDS011;42934;54.294;18.598;2022-08-21T14:08:47;6.32;;;1.77;;
57047;SDS011;42934;54.294;18.598;2022-08-21T14:11:27;4.53;;;1.80;;
57047;SDS011;42934;54.294;18.598;2022-08-21T14:14:04;1.90;;;1.60;;
57047;SDS011;42934;54.294;18.598;2022-08-21T14:16:42;4.90;;;1.63;;
57047;SDS011;42934;54.294;18.598;2022-08-21T14:19:18;3.08;;;1.80;;
57047;SDS011;42934;54.294;18.598;2022-08-21T14:21:49;3.38;;;1.80;;
57047;SDS011;42934;54.294;18.598;2022-08-21T14:24:25;3.85;;;1.48;;
57047;SDS011;42934;54.294;18.598;2022-08-21T14:29:34;2.80;;;1.80;;
57047;SDS011;42934;54.294;18.598;2022-08-21T14:32:09;3.78;;;1.90;;
57047;SDS011;42934;54.294;18.598;2022-08-21T14:34:51;3.95;;;1.67;;
57047;SDS011;42934;54.294;18.598;2022-08-21T14:37:29;2.88;;;1.95;;
57047;SDS011;42934;54.294;18.598;2022-08-21T14:39:59;3.80;;;1.92;;
57047;SDS011;42934;54.294;18.598;2022-08-21T14:42:30;4.05;;;1.98;;
57047;SDS011;42934;54.294;18.598;2022-08-21T14:45:05;3.25;;;1.77;;
57047;SDS011;42934;54.294;18.598;2022-08-21T14:47:42;5.60;;;2.03;;
57047;SDS011;42934;54.294;18.598;2022-08-21T14:52:41;3.50;;;2.20;;
57047;SDS011;42934;54.294;18.598;2022-08-21T14:55:14;3.20;;;1.80;;
57047;SDS011;42934;54.294;18.598;2022-08-21T14:57:46;3.53;;;1.98;;
57047;SDS011;42934;54.294;18.598;2022-08-21T15:00:21;3.22;;;1.88;;
57047;SDS011;42934;54.294;18.598;2022-08-21T15:03:02;12.07;;;1.88;;
57047;SDS011;42934;54.294;18.598;2022-08-21T15:05:32;3.95;;;1.60;;
57047;SDS011;42934;54.294;18.598;2022-08-21T15:08:02;2.45;;;1.60;;
57047;SDS011;42934;54.294;18.598;2022-08-21T15:13:32;2.53;;;1.63;;
57047;SDS011;42934;54.294;18.598;2022-08-21T15:16:04;3.67;;;1.38;;
57047;SDS011;42934;54.294;18.598;2022-08-21T15:18:53;4.70;;;1.55;;
57047;SDS011;42934;54.294;18.598;2022-08-21T15:21:25;4.72;;;1.52;;
57047;SDS011;42934;54.294;18.598;2022-08-21T15:23:55;3.22;;;1.40;;
57047;SDS011;42934;54.294;18.598;2022-08-21T15:26:48;4.05;;;1.50;;
57047;SDS011;42934;54.294;18.598;2022-08-21T15:29:20;5.82;;;1.65;;
57047;SDS011;42934;54.294;18.598;2022-08-21T15:31:57;3.72;;;1.63;;
57047;SDS011;42934;54.294;18.598;2022-08-21T15:34:33;3.03;;;1.75;;
57047;SDS011;42934;54.294;18.598;2022-08-21T15:37:26;4.18;;;1.58;;
57047;SDS011;42934;54.294;18.598;2022-08-21T15:39:56;3.95;;;1.70;;